Terminal Aerodrome Forecast
Issued by NWS Sterling, VA

Current Version | Previous Version | Graphics & Text | Print | Product List | Glossary On
Versions: 1 2 3 4 5 6 7 8 9 10 11 12 13 14 15 16 17 18 19 20 21 22 23 24 25 26 27 28 29 30 31 32
000
FTUS41 KLWX 271440 AAF
TAFDCA
TAF AMD
KDCA 271440Z 2715/2812 10012G18KT 5SM -SHRA BKN015 OVC025
     FM271800 13015KT 2SM TSRA OVC018CB
     FM272300 15014KT 2SM TSRA BR OVC015CB
     FM280000 17009KT 3SM SHRA OVC045
     FM280300 22005KT 3SM -SHRA OVC090
     FM280600 26004KT 6SM -SHRA BKN090
     FM281000 27007KT P6SM BKN100=

USA.gov is the U.S. government's official web portal to all federal, state and local government web resources and services.